7M4 weather

Osceola Municipal Airport
Osceola, Arkansas, United States

Public forecast

Using degrees Fahrenheit for public forecast. Weather courtesy of forecast.io.

Closest aviation weather report (METAR) to Osceola Municipal Airport

Report is more than 6 hours old.

Closest report is Arkansas International Airport, 16.7 nm (31.0 km) N. Retrieved 2019/10/16 21:50 UTC (14 hours ago):

KBYH 162150Z 30009G15KT 10SM FEW045 17/05 A3009 RMK LAST

Closest aviation forecast (TAF) to Osceola Municipal Airport

Closest forecast is Jonesboro Municipal Airport, 32.1 nm (59.5 km) WNW. Retrieved 2019/10/17 06:22 UTC (5 hours ago):

TAF KJBR 170520Z 1706/1806 03004KT P6SM SKC FM171400 VRB02KT P6SM SKC FM180000 07002KT P6SM SKC